Flores Da Cunha, Brazil
Current Conditions -  °F | °C
As of 2:25 PM on Thursday 30 Oct 2014 (Local Time) from SBCO Reporting Station
Broken Clouds Broken Clouds  
Wind Chill: 72°   Ceiling: 1100
Heat Index: 72°   Visibility: 6mi
Dew Point: 68°   Wind: 16mph
Humidity: 88%   Direction: 270°W
Pressure: 29.83"   Gusts: NA
Location:  29.03°S, 51.18°W
Report Text: SBCO 301625Z 27014KT 9999 BKN011 BKN070 22/20 Q1010
Loading
Personal Weather Stations






























Interactive Weather Map
Tropical Storm Tracking
New forecast layout! Learn more

10-Day Weather Forecast

Advertisements
Track Severe Weather on mobile